createdAt,value
2022-10-13T00:01:17.347Z,67.07
2022-10-13T00:03:47.538Z,67.86
2022-10-13T00:06:24.090Z,67.77
2022-10-13T00:08:51.837Z,66.99
2022-10-13T00:11:20.152Z,67.40
2022-10-13T00:13:48.725Z,68.83
2022-10-13T00:16:18.591Z,69.50
2022-10-13T00:18:45.988Z,70.98
2022-10-13T00:21:16.617Z,72.15
2022-10-13T00:23:44.777Z,72.47
2022-10-13T00:26:14.190Z,73.36
2022-10-13T00:28:41.506Z,73.89
2022-10-13T00:31:24.107Z,74.31
2022-10-13T00:33:52.848Z,75.17
2022-10-13T00:36:22.914Z,75.72
2022-10-13T00:38:50.130Z,76.35
2022-10-13T00:41:17.788Z,76.19
2022-10-13T00:44:09.581Z,75.98
2022-10-13T00:46:38.099Z,76.26
2022-10-13T00:49:10.473Z,76.83
2022-10-13T00:51:44.772Z,77.52
2022-10-13T00:54:17.287Z,77.45
2022-10-13T00:56:45.701Z,77.63
2022-10-13T00:59:27.059Z,77.93
2022-10-13T01:01:54.069Z,77.16
2022-10-13T01:04:25.325Z,77.02
2022-10-13T01:06:53.764Z,75.55
2022-10-13T01:09:20.627Z,75.29
2022-10-13T01:12:11.725Z,75.21
2022-10-13T01:14:48.558Z,75.71
2022-10-13T01:17:54.369Z,75.34
2022-10-13T01:20:33.195Z,74.87
2022-10-13T01:23:18.580Z,74.71
2022-10-13T01:26:06.321Z,75.16
2022-10-13T01:28:34.256Z,74.32
2022-10-13T01:31:14.098Z,74.80
2022-10-13T01:33:46.276Z,73.90
2022-10-13T01:36:32.744Z,73.27
2022-10-13T01:39:08.334Z,73.22
2022-10-13T01:41:46.787Z,73.69
2022-10-13T01:44:34.206Z,73.34
2022-10-13T01:47:02.549Z,73.89
2022-10-13T01:49:34.715Z,73.65
2022-10-13T01:52:12.018Z,75.09
2022-10-13T01:54:38.982Z,75.16
2022-10-13T01:57:29.436Z,76.29
2022-10-13T01:59:57.928Z,76.47
2022-10-13T02:03:02.790Z,75.81
2022-10-13T02:05:49.481Z,76.18
2022-10-13T02:08:31.582Z,76.14
2022-10-13T02:11:02.359Z,76.57
2022-10-13T02:13:32.363Z,76.38
2022-10-13T02:16:01.563Z,77.10
2022-10-13T02:18:34.811Z,76.55
2022-10-13T02:21:05.209Z,76.62
2022-10-13T02:23:32.323Z,77.26
2022-10-13T02:26:00.117Z,77.39
2022-10-13T02:28:28.428Z,77.23
2022-10-13T02:30:55.325Z,77.09
2022-10-13T02:33:22.293Z,76.64
2022-10-13T02:35:49.141Z,76.42
2022-10-13T02:38:16.105Z,76.52
2022-10-13T02:40:43.209Z,77.22
2022-10-13T02:43:10.183Z,77.33
2022-10-13T02:45:37.238Z,77.89
2022-10-13T02:48:04.684Z,77.48
2022-10-13T02:50:32.027Z,77.37
2022-10-13T02:52:59.181Z,77.57
2022-10-13T02:55:26.269Z,77.86
2022-10-13T02:57:56.897Z,78.02
2022-10-13T03:00:24.141Z,78.73
2022-10-13T03:02:50.994Z,79.01
2022-10-13T03:05:18.521Z,79.21
2022-10-13T03:07:46.823Z,78.95
2022-10-13T03:10:14.170Z,79.11
2022-10-13T03:12:41.949Z,80.19
2022-10-13T03:15:10.136Z,79.76
2022-10-13T03:17:36.974Z,79.92
2022-10-13T03:20:04.941Z,80.08
2022-10-13T03:22:33.170Z,80.66
2022-10-13T03:25:00.708Z,80.76
2022-10-13T03:27:27.841Z,80.32
2022-10-13T03:29:55.031Z,79.79
2022-10-13T03:32:22.234Z,79.63
2022-10-13T03:34:50.069Z,80.58
2022-10-13T03:37:17.209Z,81.07
2022-10-13T03:39:44.345Z,81.05
2022-10-13T03:42:13.010Z,80.82
2022-10-13T03:44:40.585Z,80.96
2022-10-13T03:47:08.215Z,80.69
2022-10-13T03:49:35.077Z,80.46
2022-10-13T03:52:01.944Z,79.70
2022-10-13T03:54:29.200Z,80.26
2022-10-13T03:56:59.652Z,80.39
2022-10-13T03:59:34.146Z,80.81
2022-10-13T04:02:03.689Z,80.93
2022-10-13T04:04:30.607Z,80.69
2022-10-13T04:06:58.408Z,79.29
2022-10-13T04:09:28.247Z,78.54
2022-10-13T04:11:55.495Z,78.58
2022-10-13T04:14:22.396Z,78.27
2022-10-13T04:16:49.231Z,77.97
2022-10-13T04:19:16.508Z,78.00
2022-10-13T04:21:44.180Z,78.18
2022-10-13T04:24:14.860Z,78.70
2022-10-13T04:26:42.265Z,79.65
2022-10-13T04:29:12.329Z,80.11
2022-10-13T04:31:45.856Z,80.45
2022-10-13T04:34:15.359Z,81.08
2022-10-13T04:36:42.735Z,81.81
2022-10-13T04:39:12.180Z,81.30
2022-10-13T04:41:40.101Z,80.96
2022-10-13T04:44:11.160Z,80.88
2022-10-13T04:46:38.212Z,80.38
2022-10-13T04:49:16.559Z,80.44
2022-10-13T04:51:43.597Z,80.79
2022-10-13T04:54:10.805Z,79.92
2022-10-13T04:56:42.865Z,78.92
2022-10-13T04:59:11.837Z,77.70
2022-10-13T05:01:39.417Z,77.25
2022-10-13T05:04:15.724Z,77.60
2022-10-13T05:07:16.056Z,77.85
2022-10-13T05:09:35.731Z,78.20
2022-10-13T05:12:07.678Z,78.51
2022-10-13T05:14:35.106Z,78.61
2022-10-13T05:17:04.769Z,78.83
2022-10-13T05:19:34.719Z,78.40
2022-10-13T05:22:02.596Z,78.14
2022-10-13T05:24:36.801Z,78.15
2022-10-13T05:27:12.396Z,77.90
2022-10-13T05:29:41.938Z,77.76
2022-10-13T05:32:08.997Z,77.75
2022-10-13T05:34:36.937Z,77.65
2022-10-13T05:37:05.333Z,77.52
2022-10-13T05:39:33.516Z,77.53
2022-10-13T05:42:02.769Z,77.62
2022-10-13T05:44:31.875Z,77.85
2022-10-13T05:47:02.530Z,78.19
2022-10-13T05:49:32.136Z,77.77
2022-10-13T05:52:06.765Z,77.61
2022-10-13T05:54:42.317Z,77.41
2022-10-13T05:57:17.823Z,76.96
2022-10-13T05:59:55.282Z,76.69
2022-10-13T06:02:27.002Z,76.78
2022-10-13T06:04:57.214Z,76.42
2022-10-13T06:07:25.170Z,76.52
2022-10-13T06:09:52.144Z,76.34
2022-10-13T06:12:19.690Z,76.26
2022-10-13T06:14:47.467Z,76.40
2022-10-13T06:17:15.110Z,76.58
2022-10-13T06:19:45.356Z,76.56
2022-10-13T06:22:12.440Z,76.05
2022-10-13T06:24:39.397Z,76.49
2022-10-13T06:27:10.866Z,75.89
2022-10-13T06:29:38.400Z,74.55
2022-10-13T06:32:25.076Z,74.81
2022-10-13T06:34:52.130Z,74.74
2022-10-13T06:37:27.121Z,74.34
2022-10-13T06:39:57.170Z,73.65
2022-10-13T06:42:24.155Z,73.42
2022-10-13T06:45:09.935Z,72.70
2022-10-13T06:47:41.200Z,71.88
2022-10-13T06:50:08.799Z,70.25
2022-10-13T06:52:39.937Z,69.67
2022-10-13T06:55:07.055Z,68.99
2022-10-13T06:57:35.039Z,68.94
2022-10-13T07:00:06.750Z,68.19
2022-10-13T07:02:34.382Z,67.98
2022-10-13T07:05:03.141Z,67.83
2022-10-13T07:07:32.913Z,67.66
2022-10-13T07:10:00.365Z,67.63
2022-10-13T07:12:28.859Z,66.66
2022-10-13T07:14:55.806Z,66.36
2022-10-13T07:17:23.116Z,65.70
2022-10-13T07:19:52.786Z,65.96
2022-10-13T07:22:23.079Z,66.21
2022-10-13T07:24:50.103Z,66.97
2022-10-13T07:27:18.291Z,66.13
2022-10-13T07:29:46.168Z,64.99
2022-10-13T07:32:14.829Z,65.05
2022-10-13T07:34:41.803Z,64.60
2022-10-13T07:37:11.109Z,63.75
2022-10-13T07:39:38.655Z,63.21
2022-10-13T07:42:05.703Z,62.80
2022-10-13T07:44:32.977Z,62.56
2022-10-13T07:47:01.299Z,62.32
2022-10-13T07:49:28.694Z,61.97
2022-10-13T07:51:59.803Z,61.41
2022-10-13T07:54:27.610Z,61.21
2022-10-13T07:56:56.087Z,60.50
2022-10-13T07:59:24.614Z,60.06
2022-10-13T08:01:52.085Z,59.61
2022-10-13T08:04:19.186Z,59.84
2022-10-13T08:06:46.088Z,59.56
2022-10-13T08:09:16.347Z,59.61
2022-10-13T08:11:45.635Z,59.25
2022-10-13T08:17:16.420Z,58.69
2022-10-13T08:19:43.342Z,58.34
2022-10-13T08:22:13.597Z,57.79
2022-10-13T08:24:40.648Z,58.06
2022-10-13T08:27:11.901Z,57.46
2022-10-13T08:29:40.949Z,57.53
2022-10-13T08:32:08.115Z,57.54
2022-10-13T08:34:36.892Z,58.07
2022-10-13T08:37:04.716Z,56.75
2022-10-13T08:39:33.123Z,57.29
2022-10-13T08:42:00.621Z,57.38
2022-10-13T08:47:27.942Z,57.34
2022-10-13T08:50:00.694Z,56.65
2022-10-13T08:52:46.284Z,54.62
2022-10-13T08:55:38.492Z,54.70
2022-10-13T08:58:24.670Z,54.69
2022-10-13T09:01:11.383Z,53.61
2022-10-13T09:03:49.665Z,53.23
2022-10-13T09:06:16.674Z,52.86
2022-10-13T09:08:52.392Z,51.61
2022-10-13T09:11:20.889Z,50.72
2022-10-13T09:13:48.180Z,51.06
2022-10-13T09:19:16.131Z,50.59
2022-10-13T09:21:45.917Z,47.29
2022-10-13T09:24:16.353Z,48.38
2022-10-13T09:26:45.069Z,47.65
2022-10-13T09:29:18.072Z,47.88
2022-10-13T09:31:45.824Z,47.96
2022-10-13T09:34:18.887Z,47.98
2022-10-13T09:37:03.417Z,47.40
2022-10-13T09:39:32.167Z,47.77
2022-10-13T09:42:24.204Z,46.79
2022-10-13T09:45:23.244Z,46.29
2022-10-13T09:47:56.201Z,45.88
2022-10-13T09:50:31.984Z,45.22
2022-10-13T09:53:23.026Z,44.40
2022-10-13T09:55:50.385Z,44.43
2022-10-13T09:58:32.293Z,44.70
2022-10-13T10:01:00.036Z,44.50
2022-10-13T10:03:34.578Z,44.17
2022-10-13T10:06:07.856Z,44.44
2022-10-13T10:09:04.835Z,44.36
2022-10-13T10:11:40.477Z,44.87
2022-10-13T10:14:24.974Z,44.52
2022-10-13T10:17:21.798Z,45.13
2022-10-13T10:20:20.726Z,44.53
2022-10-13T10:23:05.245Z,46.05
2022-10-13T10:25:42.144Z,45.24
2022-10-13T10:28:15.905Z,44.97
2022-10-13T10:30:55.856Z,44.40
2022-10-13T10:33:45.196Z,44.24
2022-10-13T10:36:18.011Z,44.27
2022-10-13T10:38:52.886Z,44.82
2022-10-13T10:41:31.510Z,45.54
2022-10-13T10:44:31.612Z,44.76
2022-10-13T10:47:27.245Z,44.03
2022-10-13T10:50:23.199Z,44.91
2022-10-13T10:53:04.973Z,44.77
2022-10-13T10:55:55.241Z,44.05
2022-10-13T10:58:31.963Z,43.57
2022-10-13T11:01:23.015Z,44.13
2022-10-13T11:04:04.685Z,44.70
2022-10-13T11:06:36.997Z,44.52
2022-10-13T11:09:06.336Z,44.47
2022-10-13T11:11:37.956Z,44.46
2022-10-13T11:14:24.074Z,44.08
2022-10-13T11:17:08.892Z,43.91
2022-10-13T11:19:46.600Z,44.01
2022-10-13T11:22:21.212Z,44.27
2022-10-13T11:25:13.086Z,43.61
2022-10-13T11:27:42.028Z,42.95
2022-10-13T11:30:41.507Z,43.56
2022-10-13T11:33:39.384Z,43.10
2022-10-13T11:36:39.558Z,42.86
2022-10-13T11:39:28.338Z,42.80
2022-10-13T11:42:42.153Z,42.92
2022-10-13T11:45:49.149Z,42.92
2022-10-13T11:49:03.356Z,41.44
2022-10-13T11:51:37.371Z,41.66
2022-10-13T11:54:19.310Z,42.74
2022-10-13T11:56:51.927Z,42.24
2022-10-13T11:59:27.646Z,41.50
2022-10-13T12:02:05.575Z,40.87
2022-10-13T12:04:36.469Z,40.84
2022-10-13T12:07:08.099Z,40.96
2022-10-13T12:09:56.889Z,41.02
2022-10-13T12:12:26.002Z,40.81
2022-10-13T12:14:55.753Z,41.30
2022-10-13T12:17:28.058Z,39.99
2022-10-13T12:20:01.208Z,37.60
2022-10-13T12:22:31.546Z,37.65
2022-10-13T12:25:04.637Z,38.97
2022-10-13T12:27:47.797Z,39.66
2022-10-13T12:30:35.880Z,38.05
2022-10-13T12:33:04.923Z,37.77
2022-10-13T12:35:34.731Z,37.26
2022-10-13T12:38:05.816Z,37.30
2022-10-13T12:40:35.520Z,36.87
2022-10-13T12:43:04.386Z,37.77
2022-10-13T12:45:34.443Z,37.80
2022-10-13T12:48:01.519Z,38.02
2022-10-13T12:50:31.560Z,37.71
2022-10-13T12:53:15.332Z,37.83
2022-10-13T12:55:53.290Z,37.98
2022-10-13T12:58:27.834Z,38.44
2022-10-13T13:00:57.728Z,38.20
2022-10-13T13:03:28.914Z,39.19
2022-10-13T13:06:15.094Z,39.35
2022-10-13T13:08:43.395Z,40.44
2022-10-13T13:11:42.535Z,40.36
2022-10-13T13:14:45.014Z,40.51
2022-10-13T13:17:27.658Z,40.97
2022-10-13T13:20:23.013Z,40.94
2022-10-13T13:22:50.880Z,40.83
2022-10-13T13:25:17.835Z,40.43
2022-10-13T13:27:45.436Z,40.45
2022-10-13T13:30:21.378Z,40.17
2022-10-13T13:32:53.233Z,41.19
2022-10-13T13:35:21.843Z,41.96
2022-10-13T13:37:53.198Z,43.37
2022-10-13T13:40:25.806Z,43.36
2022-10-13T13:42:55.891Z,43.44
2022-10-13T13:45:26.380Z,44.17
2022-10-13T13:47:59.469Z,44.32
2022-10-13T13:50:36.108Z,44.79
2022-10-13T13:53:04.288Z,45.44
2022-10-13T13:55:31.559Z,45.58
2022-10-13T13:57:58.517Z,45.66
2022-10-13T14:00:25.750Z,45.35
2022-10-13T14:06:20.419Z,45.57
2022-10-13T14:08:47.851Z,45.73
2022-10-13T14:11:14.894Z,45.48
2022-10-13T14:13:41.918Z,45.74
2022-10-13T14:16:16.135Z,45.46
2022-10-13T14:18:43.087Z,45.25
2022-10-13T14:21:09.959Z,44.48
2022-10-13T14:23:36.855Z,44.98
2022-10-13T14:26:55.204Z,45.08
2022-10-13T14:29:22.100Z,44.81
2022-10-13T14:31:49.020Z,44.94
2022-10-13T14:34:15.943Z,45.10
2022-10-13T14:36:42.847Z,44.52
2022-10-13T14:39:10.067Z,45.12
2022-10-13T14:41:39.027Z,45.62
2022-10-13T14:44:05.902Z,45.42
2022-10-13T14:46:32.886Z,46.10
2022-10-13T14:49:00.421Z,45.38
2022-10-13T14:51:27.298Z,45.10
2022-10-13T14:53:54.342Z,45.28
2022-10-13T14:56:23.616Z,45.11
2022-10-13T14:58:54.139Z,44.21
2022-10-13T15:01:24.136Z,44.35
2022-10-13T15:03:52.346Z,43.95
2022-10-13T15:06:25.061Z,43.86
2022-10-13T15:08:57.990Z,43.77
2022-10-13T15:11:37.959Z,43.66
2022-10-13T15:14:13.367Z,44.27
2022-10-13T15:16:44.787Z,43.60
2022-10-13T15:19:18.567Z,43.59
2022-10-13T15:21:46.075Z,43.64
2022-10-13T15:24:13.030Z,44.21
2022-10-13T15:29:33.661Z,43.80
2022-10-13T15:32:17.944Z,43.78
2022-10-13T15:35:00.990Z,44.15
2022-10-13T15:37:45.419Z,43.88
2022-10-13T15:40:12.758Z,44.38
2022-10-13T15:42:40.208Z,43.86
2022-10-13T15:45:10.347Z,43.53
2022-10-13T15:47:38.189Z,43.73
2022-10-13T15:50:05.343Z,44.28
2022-10-13T15:52:34.918Z,43.93
2022-10-13T15:55:02.338Z,43.58
2022-10-13T15:57:31.450Z,43.37
2022-10-13T15:59:58.352Z,43.51
2022-10-13T16:02:25.533Z,43.02
2022-10-13T16:04:53.632Z,43.05
2022-10-13T16:07:20.546Z,43.24
2022-10-13T16:09:48.809Z,43.55
2022-10-13T16:12:15.973Z,43.92
2022-10-13T16:14:42.965Z,43.86
2022-10-13T16:17:09.950Z,43.53
2022-10-13T16:19:36.801Z,43.85
2022-10-13T16:22:04.045Z,43.78
2022-10-13T16:24:30.987Z,43.99
2022-10-13T16:26:57.897Z,43.71
2022-10-13T16:29:26.070Z,44.56
2022-10-13T16:31:53.042Z,44.88
2022-10-13T16:34:20.748Z,44.87
2022-10-13T16:36:47.605Z,45.21
2022-10-13T16:39:14.491Z,45.54
2022-10-13T16:41:41.424Z,44.81
2022-10-13T16:44:08.541Z,45.39
2022-10-13T16:46:35.495Z,45.75
2022-10-13T16:49:02.478Z,46.30
2022-10-13T16:51:29.758Z,46.68
2022-10-13T16:54:02.956Z,46.70
2022-10-13T16:56:31.146Z,46.95
2022-10-13T16:59:05.175Z,47.24
2022-10-13T17:01:33.651Z,47.56
2022-10-13T17:04:03.129Z,47.57
2022-10-13T17:06:30.321Z,47.68
2022-10-13T17:08:58.956Z,47.83
2022-10-13T17:11:29.999Z,48.10
2022-10-13T17:14:01.711Z,48.39
2022-10-13T17:16:32.932Z,48.28
2022-10-13T17:19:00.126Z,47.91
2022-10-13T17:21:38.867Z,48.03
2022-10-13T17:24:08.824Z,47.91
2022-10-13T17:26:35.912Z,47.90
2022-10-13T17:29:03.264Z,48.18
2022-10-13T17:31:30.298Z,47.74
2022-10-13T17:33:57.311Z,48.37
2022-10-13T17:36:29.046Z,49.25
2022-10-13T17:39:01.709Z,48.93
2022-10-13T17:41:29.113Z,49.09
2022-10-13T17:43:57.138Z,49.70
2022-10-13T17:46:42.093Z,50.17
2022-10-13T17:49:11.699Z,50.14
2022-10-13T17:51:39.955Z,50.27
2022-10-13T17:54:11.454Z,51.50
2022-10-13T17:56:41.641Z,51.90
2022-10-13T17:59:09.929Z,52.31
2022-10-13T18:01:37.081Z,51.80
2022-10-13T18:04:06.995Z,51.57
2022-10-13T18:06:39.970Z,51.68
2022-10-13T18:09:09.400Z,52.30
2022-10-13T18:11:37.149Z,52.78
2022-10-13T18:14:05.014Z,54.24
2022-10-13T18:16:32.915Z,55.43
2022-10-13T18:18:59.795Z,54.65
2022-10-13T18:21:27.100Z,54.09
2022-10-13T18:23:55.878Z,54.87
2022-10-13T18:26:25.366Z,54.39
2022-10-13T18:28:53.343Z,54.67
2022-10-13T18:31:29.749Z,53.30
2022-10-13T18:34:02.391Z,53.26
2022-10-13T18:36:35.941Z,53.60
2022-10-13T18:39:12.788Z,53.34
2022-10-13T18:41:42.130Z,53.54
2022-10-13T18:44:09.769Z,52.97
2022-10-13T18:46:39.057Z,52.81
2022-10-13T19:06:35.615Z,54.21
2022-10-13T19:09:06.443Z,54.24
2022-10-13T19:11:37.333Z,54.30
2022-10-13T19:14:07.063Z,53.96
2022-10-13T19:16:37.315Z,54.18
2022-10-13T19:19:09.298Z,53.99
2022-10-13T19:21:39.126Z,54.51
2022-10-13T19:27:03.563Z,54.65
2022-10-13T19:29:33.208Z,55.07
2022-10-13T19:32:02.928Z,55.11
2022-10-13T19:37:22.647Z,55.96
2022-10-13T19:39:52.669Z,56.56
2022-10-13T19:42:36.583Z,57.01
2022-10-13T19:45:06.279Z,57.25
2022-10-13T19:47:37.108Z,57.76
2022-10-13T19:50:05.811Z,58.66
2022-10-13T19:52:33.241Z,58.63
2022-10-13T19:55:01.198Z,59.21
2022-10-13T19:57:36.406Z,60.02
2022-10-13T20:00:06.943Z,60.29
2022-10-13T20:02:41.479Z,59.78
2022-10-13T20:05:12.120Z,59.89
2022-10-13T20:07:39.817Z,59.55
2022-10-13T20:10:28.169Z,59.79
2022-10-13T20:12:55.035Z,59.39
2022-10-13T20:15:25.399Z,59.13
2022-10-13T20:18:01.545Z,58.90
2022-10-13T20:20:31.142Z,58.62
2022-10-13T20:22:59.873Z,59.27
2022-10-13T20:25:27.360Z,60.27
2022-10-13T20:27:55.008Z,59.82
2022-10-13T20:30:23.245Z,59.76
2022-10-13T20:32:53.528Z,59.91
2022-10-13T20:35:23.352Z,58.98
2022-10-13T20:37:51.364Z,59.17
2022-10-13T20:40:20.108Z,58.45
2022-10-13T20:42:54.432Z,58.19
2022-10-13T20:45:24.167Z,58.66
2022-10-13T20:47:52.192Z,58.19
2022-10-13T20:50:19.111Z,58.72
2022-10-13T20:52:46.087Z,58.88
2022-10-13T20:55:13.013Z,59.15
2022-10-13T20:57:41.279Z,59.39
2022-10-13T21:00:09.199Z,59.56
2022-10-13T21:02:38.355Z,59.51
2022-10-13T21:05:05.283Z,58.55
2022-10-13T21:07:33.967Z,58.83
2022-10-13T21:10:01.279Z,59.52
2022-10-13T21:12:30.782Z,59.84
2022-10-13T21:14:57.689Z,59.45
2022-10-13T21:17:25.247Z,60.02
2022-10-13T21:19:52.183Z,60.18
2022-10-13T21:22:19.058Z,61.55
2022-10-13T21:24:45.949Z,61.90
2022-10-13T21:27:12.921Z,61.66
2022-10-13T21:29:39.917Z,61.86
2022-10-13T21:32:06.842Z,62.19
2022-10-13T21:34:34.274Z,62.27
2022-10-13T21:37:01.141Z,62.86
2022-10-13T21:39:28.002Z,63.53
2022-10-13T21:41:54.891Z,63.04
2022-10-13T21:44:22.376Z,63.37
2022-10-13T21:46:49.267Z,63.25
2022-10-13T21:49:16.130Z,63.53
2022-10-13T21:51:43.014Z,63.62
2022-10-13T21:54:12.650Z,63.50
2022-10-13T21:56:40.581Z,63.31
2022-10-13T21:59:08.383Z,62.57
2022-10-13T22:01:35.704Z,62.65
2022-10-13T22:04:11.790Z,62.79
2022-10-13T22:06:38.811Z,63.24
2022-10-13T22:09:06.924Z,63.63
2022-10-13T22:11:37.206Z,64.45
2022-10-13T22:14:11.323Z,64.36
2022-10-13T22:16:41.357Z,62.98
2022-10-13T22:19:08.706Z,63.99
2022-10-13T22:21:39.377Z,62.13
2022-10-13T22:24:09.615Z,62.87
2022-10-13T22:26:39.276Z,62.04
2022-10-13T22:29:07.535Z,61.94
2022-10-13T22:31:35.789Z,62.58
2022-10-13T22:34:09.660Z,62.59
2022-10-13T22:36:39.924Z,62.52
2022-10-13T22:39:10.662Z,62.75
2022-10-13T22:41:37.636Z,62.85
2022-10-13T22:44:04.801Z,63.69
2022-10-13T22:46:37.878Z,63.29
2022-10-13T22:49:06.363Z,63.49
2022-10-13T22:51:36.745Z,64.34
2022-10-13T22:54:04.625Z,65.49
2022-10-13T22:56:33.275Z,66.15
2022-10-13T22:59:08.460Z,67.30
2022-10-13T23:01:35.912Z,68.23
2022-10-13T23:04:03.415Z,68.77
2022-10-13T23:06:34.815Z,67.01
2022-10-13T23:09:04.697Z,67.88
2022-10-13T23:11:32.044Z,68.24
2022-10-13T23:14:01.500Z,68.43
2022-10-13T23:16:28.878Z,68.36
2022-10-13T23:18:55.942Z,67.44
2022-10-13T23:21:26.239Z,66.92
2022-10-13T23:24:00.998Z,66.38
2022-10-13T23:26:28.663Z,66.56
2022-10-13T23:28:57.094Z,66.29
2022-10-13T23:31:24.548Z,66.28
2022-10-13T23:33:51.826Z,66.07
2022-10-13T23:36:25.255Z,65.85
2022-10-13T23:38:56.084Z,66.29
2022-10-13T23:41:23.267Z,66.61
2022-10-13T23:43:51.213Z,66.27
2022-10-13T23:46:19.268Z,66.50
2022-10-13T23:48:46.186Z,67.55
2022-10-13T23:51:20.172Z,67.46
2022-10-13T23:53:47.230Z,66.71
2022-10-13T23:56:16.057Z,66.30
2022-10-13T23:58:44.554Z,67.29
